sensor_id;sensor_type;location;lat;lon;timestamp;pressure;altitude;pressure_sealevel;temperature;humidity
52777;BME280;38656;54.260;20.822;2023-03-16T00:02:11;101088.22;;;17.73;36.64
52777;BME280;38656;54.260;20.822;2023-03-16T00:04:38;101093.66;;;18.26;35.86
52777;BME280;38656;54.260;20.822;2023-03-16T00:07:07;101094.56;;;18.69;35.24
52777;BME280;38656;54.260;20.822;2023-03-16T00:09:34;101094.13;;;19.66;33.96
52777;BME280;38656;54.260;20.822;2023-03-16T00:12:02;101096.03;;;20.54;32.85
52777;BME280;38656;54.260;20.822;2023-03-16T00:14:29;101096.88;;;19.06;33.89
52777;BME280;38656;54.260;20.822;2023-03-16T00:16:56;101101.81;;;20.18;33.08
52777;BME280;38656;54.260;20.822;2023-03-16T00:19:22;101097.47;;;19.51;33.73
52777;BME280;38656;54.260;20.822;2023-03-16T00:21:52;101105.06;;;18.36;34.92
52777;BME280;38656;54.260;20.822;2023-03-16T00:24:19;101103.53;;;19.86;33.40
52777;BME280;38656;54.260;20.822;2023-03-16T00:26:46;101096.59;;;18.83;34.61
52777;BME280;38656;54.260;20.822;2023-03-16T00:29:13;101098.75;;;19.14;33.94
52777;BME280;38656;54.260;20.822;2023-03-16T00:31:42;101101.16;;;20.08;31.77
52777;BME280;38656;54.260;20.822;2023-03-16T00:34:10;101105.13;;;22.91;29.27
52777;BME280;38656;54.260;20.822;2023-03-16T00:36:37;101112.28;;;18.35;34.71
52777;BME280;38656;54.260;20.822;2023-03-16T00:39:06;101094.13;;;19.57;33.09
52777;BME280;38656;54.260;20.822;2023-03-16T00:41:33;101108.78;;;19.20;33.90
52777;BME280;38656;54.260;20.822;2023-03-16T00:44:03;101105.50;;;18.49;34.94
52777;BME280;38656;54.260;20.822;2023-03-16T00:46:30;101113.84;;;18.81;34.29
52777;BME280;38656;54.260;20.822;2023-03-16T00:48:56;101112.25;;;19.88;32.81
52777;BME280;38656;54.260;20.822;2023-03-16T00:51:22;101105.19;;;19.62;32.70
52777;BME280;38656;54.260;20.822;2023-03-16T00:53:49;101114.81;;;17.93;35.11
52777;BME280;38656;54.260;20.822;2023-03-16T00:56:16;101114.09;;;18.09;34.73
52777;BME280;38656;54.260;20.822;2023-03-16T00:58:42;101113.81;;;17.94;35.11
52777;BME280;38656;54.260;20.822;2023-03-16T01:01:11;101111.81;;;16.96;36.43
52777;BME280;38656;54.260;20.822;2023-03-16T01:03:38;101113.53;;;18.57;34.45
52777;BME280;38656;54.260;20.822;2023-03-16T01:06:10;101116.31;;;17.41;35.78
52777;BME280;38656;54.260;20.822;2023-03-16T01:08:38;101115.91;;;19.71;33.38
52777;BME280;38656;54.260;20.822;2023-03-16T01:11:10;101114.97;;;18.78;33.86
52777;BME280;38656;54.260;20.822;2023-03-16T01:13:38;101115.78;;;18.70;34.57
52777;BME280;38656;54.260;20.822;2023-03-16T01:16:04;101115.41;;;19.00;33.61
52777;BME280;38656;54.260;20.822;2023-03-16T01:18:32;101118.72;;;18.25;34.71
52777;BME280;38656;54.260;20.822;2023-03-16T01:21:02;101118.25;;;19.66;32.49
52777;BME280;38656;54.260;20.822;2023-03-16T01:23:29;101110.44;;;20.53;31.42
52777;BME280;38656;54.260;20.822;2023-03-16T01:25:57;101111.56;;;19.94;31.10
52777;BME280;38656;54.260;20.822;2023-03-16T01:28:25;101112.50;;;21.30;29.59
52777;BME280;38656;54.260;20.822;2023-03-16T01:30:53;101108.78;;;23.05;28.68
52777;BME280;38656;54.260;20.822;2023-03-16T01:33:24;101109.16;;;24.67;26.30
52777;BME280;38656;54.260;20.822;2023-03-16T01:35:55;101122.28;;;21.23;29.27
52777;BME280;38656;54.260;20.822;2023-03-16T01:38:21;101117.34;;;23.89;27.16
52777;BME280;38656;54.260;20.822;2023-03-16T01:40:49;101123.50;;;22.43;29.12
52777;BME280;38656;54.260;20.822;2023-03-16T01:43:17;101125.63;;;19.63;31.48
52777;BME280;38656;54.260;20.822;2023-03-16T01:48:32;101125.19;;;19.17;32.76
52777;BME280;38656;54.260;20.822;2023-03-16T01:51:25;101123.97;;;19.79;32.19
52777;BME280;38656;54.260;20.822;2023-03-16T01:53:53;101125.91;;;18.50;32.94
52777;BME280;38656;54.260;20.822;2023-03-16T01:56:25;101121.84;;;18.46;33.70
52777;BME280;38656;54.260;20.822;2023-03-16T01:58:53;101114.66;;;21.81;29.63
52777;BME280;38656;54.260;20.822;2023-03-16T02:01:25;101118.72;;;22.90;27.78
52777;BME280;38656;54.260;20.822;2023-03-16T02:03:56;101122.44;;;23.19;27.14
52777;BME280;38656;54.260;20.822;2023-03-16T02:06:25;101116.63;;;23.58;26.99
52777;BME280;38656;54.260;20.822;2023-03-16T02:09:04;101118.72;;;23.20;26.77
52777;BME280;38656;54.260;20.822;2023-03-16T02:11:31;101123.56;;;20.48;30.35
52777;BME280;38656;54.260;20.822;2023-03-16T02:14:03;101123.75;;;23.66;26.31
52777;BME280;38656;54.260;20.822;2023-03-16T02:16:32;101127.34;;;23.95;26.58
52777;BME280;38656;54.260;20.822;2023-03-16T02:18:59;101127.94;;;20.49;29.69
52777;BME280;38656;54.260;20.822;2023-03-16T02:24:07;101135.13;;;18.90;32.08
52777;BME280;38656;54.260;20.822;2023-03-16T02:26:46;101129.66;;;21.21;29.60
52777;BME280;38656;54.260;20.822;2023-03-16T02:32:07;101137.53;;;19.86;30.85
52777;BME280;38656;54.260;20.822;2023-03-16T02:34:34;101134.63;;;23.00;27.82
52777;BME280;38656;54.260;20.822;2023-03-16T02:37:01;101133.25;;;20.57;29.90
52777;BME280;38656;54.260;20.822;2023-03-16T02:39:28;101132.34;;;19.92;30.97
52777;BME280;38656;54.260;20.822;2023-03-16T02:41:54;101134.75;;;22.61;27.63
52777;BME280;38656;54.260;20.822;2023-03-16T02:44:28;101145.75;;;23.69;26.71
52777;BME280;38656;54.260;20.822;2023-03-16T02:47:04;101151.94;;;21.61;27.91
52777;BME280;38656;54.260;20.822;2023-03-16T02:49:40;101140.81;;;23.30;26.89
52777;BME280;38656;54.260;20.822;2023-03-16T02:52:09;101150.44;;;23.82;26.30
52777;BME280;38656;54.260;20.822;2023-03-16T02:54:36;101153.41;;;23.88;25.87
52777;BME280;38656;54.260;20.822;2023-03-16T02:57:02;101147.75;;;24.32;25.63
52777;BME280;38656;54.260;20.822;2023-03-16T02:59:29;101153.16;;;23.24;26.46
52777;BME280;38656;54.260;20.822;2023-03-16T03:01:55;101164.78;;;19.64;30.55
52777;BME280;38656;54.260;20.822;2023-03-16T03:04:21;101162.09;;;18.71;32.07
52777;BME280;38656;54.260;20.822;2023-03-16T03:06:50;101162.47;;;21.08;29.32
52777;BME280;38656;54.260;20.822;2023-03-16T03:09:17;101162.63;;;19.76;30.70
52777;BME280;38656;54.260;20.822;2023-03-16T03:11:44;101161.34;;;19.21;31.52
52777;BME280;38656;54.260;20.822;2023-03-16T03:14:11;101169.38;;;17.26;34.82
52777;BME280;38656;54.260;20.822;2023-03-16T03:16:41;101164.50;;;20.01;31.64
52777;BME280;38656;54.260;20.822;2023-03-16T03:19:11;101176.09;;;18.12;33.72
52777;BME280;38656;54.260;20.822;2023-03-16T03:21:39;101180.47;;;19.35;32.14
52777;BME280;38656;54.260;20.822;2023-03-16T03:24:05;101170.53;;;20.11;30.79
52777;BME280;38656;54.260;20.822;2023-03-16T03:26:32;101173.22;;;18.84;32.76
52777;BME280;38656;54.260;20.822;2023-03-16T03:28:59;101174.69;;;19.13;32.86
52777;BME280;38656;54.260;20.822;2023-03-16T03:31:25;101176.81;;;18.40;33.16
52777;BME280;38656;54.260;20.822;2023-03-16T03:33:51;101190.34;;;18.39;33.28
52777;BME280;38656;54.260;20.822;2023-03-16T03:36:18;101170.97;;;21.20;30.36
52777;BME280;38656;54.260;20.822;2023-03-16T03:38:44;101194.81;;;18.56;32.93
52777;BME280;38656;54.260;20.822;2023-03-16T03:41:10;101181.75;;;19.22;32.51
52777;BME280;38656;54.260;20.822;2023-03-16T03:43:37;101187.13;;;16.90;35.86
52777;BME280;38656;54.260;20.822;2023-03-16T03:46:03;101184.16;;;18.91;32.96
52777;BME280;38656;54.260;20.822;2023-03-16T03:48:30;101187.53;;;18.67;32.97
52777;BME280;38656;54.260;20.822;2023-03-16T03:50:56;101189.84;;;19.39;32.06
52777;BME280;38656;54.260;20.822;2023-03-16T03:53:22;101195.84;;;17.83;34.14
52777;BME280;38656;54.260;20.822;2023-03-16T03:55:48;101191.31;;;18.38;33.71
52777;BME280;38656;54.260;20.822;2023-03-16T03:58:15;101197.38;;;18.92;33.16
52777;BME280;38656;54.260;20.822;2023-03-16T04:00:42;101197.88;;;19.31;32.38
52777;BME280;38656;54.260;20.822;2023-03-16T04:03:08;101201.72;;;19.87;30.83
52777;BME280;38656;54.260;20.822;2023-03-16T04:05:34;101198.31;;;18.31;33.49
52777;BME280;38656;54.260;20.822;2023-03-16T04:08:00;101204.56;;;18.03;34.12
52777;BME280;38656;54.260;20.822;2023-03-16T04:10:29;101206.53;;;17.83;34.55
52777;BME280;38656;54.260;20.822;2023-03-16T04:12:57;101206.69;;;17.64;35.09
52777;BME280;38656;54.260;20.822;2023-03-16T04:15:24;101213.16;;;18.07;35.06
52777;BME280;38656;54.260;20.822;2023-03-16T04:17:50;101209.31;;;18.80;34.08
52777;BME280;38656;54.260;20.822;2023-03-16T04:20:18;101210.16;;;18.10;34.64
52777;BME280;38656;54.260;20.822;2023-03-16T04:22:48;101210.03;;;19.17;32.93
52777;BME280;38656;54.260;20.822;2023-03-16T04:25:16;101215.28;;;16.55;35.33
52777;BME280;38656;54.260;20.822;2023-03-16T04:27:43;101204.09;;;17.54;35.66
52777;BME280;38656;54.260;20.822;2023-03-16T04:30:13;101205.22;;;16.96;35.59
52777;BME280;38656;54.260;20.822;2023-03-16T04:32:40;101201.31;;;18.10;34.64
52777;BME280;38656;54.260;20.822;2023-03-16T04:35:07;101215.75;;;15.31;37.96
52777;BME280;38656;54.260;20.822;2023-03-16T04:37:33;101207.59;;;17.55;35.63
52777;BME280;38656;54.260;20.822;2023-03-16T04:39:59;101210.09;;;17.01;35.45
52777;BME280;38656;54.260;20.822;2023-03-16T04:42:29;101215.06;;;18.41;33.32
52777;BME280;38656;54.260;20.822;2023-03-16T04:44:56;101215.56;;;18.00;34.04
52777;BME280;38656;54.260;20.822;2023-03-16T04:47:22;101209.44;;;18.44;34.06
52777;BME280;38656;54.260;20.822;2023-03-16T04:49:48;101212.59;;;19.77;32.73
52777;BME280;38656;54.260;20.822;2023-03-16T04:52:14;101204.22;;;19.30;32.77
52777;BME280;38656;54.260;20.822;2023-03-16T04:54:40;101209.00;;;21.00;30.71
52777;BME280;38656;54.260;20.822;2023-03-16T04:57:06;101213.13;;;18.96;32.45
52777;BME280;38656;54.260;20.822;2023-03-16T04:59:33;101213.47;;;22.02;28.71
52777;BME280;38656;54.260;20.822;2023-03-16T05:01:59;101229.53;;;20.11;30.79
52777;BME280;38656;54.260;20.822;2023-03-16T05:04:25;101220.38;;;23.99;26.84
52777;BME280;38656;54.260;20.822;2023-03-16T05:06:51;101217.88;;;22.41;27.48
52777;BME280;38656;54.260;20.822;2023-03-16T05:09:18;101218.69;;;23.25;27.37
52777;BME280;38656;54.260;20.822;2023-03-16T05:11:45;101221.53;;;23.53;26.80
52777;BME280;38656;54.260;20.822;2023-03-16T05:14:11;101212.88;;;24.51;25.68
52777;BME280;38656;54.260;20.822;2023-03-16T05:16:38;101231.59;;;22.85;26.99
52777;BME280;38656;54.260;20.822;2023-03-16T05:19:04;101223.81;;;20.63;29.03
52777;BME280;38656;54.260;20.822;2023-03-16T05:21:30;101228.59;;;17.67;34.17
52777;BME280;38656;54.260;20.822;2023-03-16T05:23:57;101228.34;;;17.61;34.45
52777;BME280;38656;54.260;20.822;2023-03-16T05:26:23;101230.91;;;17.34;35.30
52777;BME280;38656;54.260;20.822;2023-03-16T05:28:52;101235.41;;;16.77;35.66
52777;BME280;38656;54.260;20.822;2023-03-16T05:31:19;101233.66;;;18.69;34.00
52777;BME280;38656;54.260;20.822;2023-03-16T05:33:45;101236.75;;;17.94;34.77
52777;BME280;38656;54.260;20.822;2023-03-16T05:36:11;101236.25;;;16.97;36.41
52777;BME280;38656;54.260;20.822;2023-03-16T05:38:38;101243.41;;;19.31;32.47
52777;BME280;38656;54.260;20.822;2023-03-16T05:41:04;101243.00;;;15.74;37.54
52777;BME280;38656;54.260;20.822;2023-03-16T05:43:30;101234.75;;;17.96;35.77
52777;BME280;38656;54.260;20.822;2023-03-16T05:45:57;101240.44;;;20.01;32.15
52777;BME280;38656;54.260;20.822;2023-03-16T05:48:23;101239.22;;;19.79;31.58
52777;BME280;38656;54.260;20.822;2023-03-16T05:50:53;101238.81;;;19.57;32.42
52777;BME280;38656;54.260;20.822;2023-03-16T05:53:19;101247.84;;;18.87;33.24
52777;BME280;38656;54.260;20.822;2023-03-16T05:55:51;101249.41;;;17.08;36.37
52777;BME280;38656;54.260;20.822;2023-03-16T05:58:17;101246.06;;;18.08;36.16
52777;BME280;38656;54.260;20.822;2023-03-16T06:00:43;101255.09;;;19.21;33.78
52777;BME280;38656;54.260;20.822;2023-03-16T06:03:19;101257.88;;;16.94;36.87
52777;BME280;38656;54.260;20.822;2023-03-16T06:05:45;101265.97;;;17.12;36.35
52777;BME280;38656;54.260;20.822;2023-03-16T06:08:12;101259.72;;;18.04;36.51
52777;BME280;38656;54.260;20.822;2023-03-16T06:10:38;101255.34;;;17.85;35.46
52777;BME280;38656;54.260;20.822;2023-03-16T06:13:04;101256.56;;;19.16;35.43
52777;BME280;38656;54.260;20.822;2023-03-16T06:15:30;101266.13;;;17.38;36.51
52777;BME280;38656;54.260;20.822;2023-03-16T06:17:56;101267.16;;;19.25;33.19
52777;BME280;38656;54.260;20.822;2023-03-16T06:20:23;101255.09;;;21.60;30.99
52777;BME280;38656;54.260;20.822;2023-03-16T06:22:49;101258.44;;;17.81;37.01
52777;BME280;38656;54.260;20.822;2023-03-16T06:25:15;101265.19;;;18.83;34.73
52777;BME280;38656;54.260;20.822;2023-03-16T06:27:42;101264.34;;;19.01;35.08
52777;BME280;38656;54.260;20.822;2023-03-16T06:30:10;101270.00;;;19.67;35.67
52777;BME280;38656;54.260;20.822;2023-03-16T06:32:37;101274.66;;;17.24;37.60
52777;BME280;38656;54.260;20.822;2023-03-16T06:35:04;101278.97;;;15.99;40.19
52777;BME280;38656;54.260;20.822;2023-03-16T06:37:31;101273.94;;;19.46;35.16
52777;BME280;38656;54.260;20.822;2023-03-16T06:39:57;101282.56;;;17.06;36.94
52777;BME280;38656;54.260;20.822;2023-03-16T06:42:23;101277.13;;;20.01;34.12
52777;BME280;38656;54.260;20.822;2023-03-16T06:44:50;101276.50;;;19.21;35.21
52777;BME280;38656;54.260;20.822;2023-03-16T06:47:18;101274.66;;;20.48;33.34
52777;BME280;38656;54.260;20.822;2023-03-16T06:49:44;101274.16;;;19.26;34.03
52777;BME280;38656;54.260;20.822;2023-03-16T06:52:12;101276.03;;;18.55;35.70
52777;BME280;38656;54.260;20.822;2023-03-16T06:54:39;101283.72;;;18.50;36.04
52777;BME280;38656;54.260;20.822;2023-03-16T06:57:06;101280.19;;;20.39;33.85
52777;BME280;38656;54.260;20.822;2023-03-16T06:59:32;101285.44;;;19.38;35.00
52777;BME280;38656;54.260;20.822;2023-03-16T07:01:59;101279.25;;;18.41;36.19
52777;BME280;38656;54.260;20.822;2023-03-16T07:04:26;101278.84;;;22.72;30.79
52777;BME280;38656;54.260;20.822;2023-03-16T07:06:53;101284.41;;;23.75;30.12
52777;BME280;38656;54.260;20.822;2023-03-16T07:09:19;101295.78;;;21.40;31.57
52777;BME280;38656;54.260;20.822;2023-03-16T07:11:46;101282.78;;;25.17;27.44
52777;BME280;38656;54.260;20.822;2023-03-16T07:14:13;101287.03;;;22.94;29.61
52777;BME280;38656;54.260;20.822;2023-03-16T07:16:39;101302.88;;;19.08;35.05
52777;BME280;38656;54.260;20.822;2023-03-16T07:19:05;101292.94;;;20.69;32.86
52777;BME280;38656;54.260;20.822;2023-03-16T07:21:32;101303.94;;;20.01;33.82
52777;BME280;38656;54.260;20.822;2023-03-16T07:24:04;101295.53;;;24.45;28.60
52777;BME280;38656;54.260;20.822;2023-03-16T07:26:30;101296.31;;;24.39;28.92
52777;BME280;38656;54.260;20.822;2023-03-16T07:28:58;101311.31;;;22.56;30.43
52777;BME280;38656;54.260;20.822;2023-03-16T07:31:24;101300.34;;;25.00;29.58
52777;BME280;38656;54.260;20.822;2023-03-16T07:33:51;101302.66;;;22.45;31.29
52777;BME280;38656;54.260;20.822;2023-03-16T07:36:17;101293.19;;;26.71;28.75
52777;BME280;38656;54.260;20.822;2023-03-16T07:38:43;101306.59;;;23.26;29.38
52777;BME280;38656;54.260;20.822;2023-03-16T07:41:09;101308.44;;;21.80;31.28
52777;BME280;38656;54.260;20.822;2023-03-16T07:43:36;101325.13;;;20.37;33.21
52777;BME280;38656;54.260;20.822;2023-03-16T07:46:02;101323.34;;;20.70;33.73
52777;BME280;38656;54.260;20.822;2023-03-16T07:48:29;101324.72;;;19.56;34.86
52777;BME280;38656;54.260;20.822;2023-03-16T07:50:55;101320.44;;;23.53;30.26
52777;BME280;38656;54.260;20.822;2023-03-16T07:53:21;101318.91;;;21.18;32.73
52777;BME280;38656;54.260;20.822;2023-03-16T07:55:47;101319.56;;;22.54;31.36
52777;BME280;38656;54.260;20.822;2023-03-16T07:58:13;101307.34;;;26.99;28.04
52777;BME280;38656;54.260;20.822;2023-03-16T08:00:40;101319.28;;;25.83;28.06
52777;BME280;38656;54.260;20.822;2023-03-16T08:03:07;101320.56;;;24.82;27.28
52777;BME280;38656;54.260;20.822;2023-03-16T08:05:34;101333.84;;;24.34;30.53
52777;BME280;38656;54.260;20.822;2023-03-16T08:08:00;101331.47;;;21.26;32.50
52777;BME280;38656;54.260;20.822;2023-03-16T08:10:27;101330.78;;;21.32;33.15
52777;BME280;38656;54.260;20.822;2023-03-16T08:12:53;101327.75;;;21.35;33.55
52777;BME280;38656;54.260;20.822;2023-03-16T08:15:20;101330.94;;;22.65;31.24
52777;BME280;38656;54.260;20.822;2023-03-16T08:17:46;101327.75;;;22.99;31.03
52777;BME280;38656;54.260;20.822;2023-03-16T08:20:13;101335.09;;;22.21;31.47
52777;BME280;38656;54.260;20.822;2023-03-16T08:22:41;101338.94;;;23.56;30.54
52777;BME280;38656;54.260;20.822;2023-03-16T08:25:11;101327.31;;;24.65;29.87
52777;BME280;38656;54.260;20.822;2023-03-16T08:27:37;101328.22;;;27.78;27.22
52777;BME280;38656;54.260;20.822;2023-03-16T08:30:09;101327.53;;;24.05;31.25
52777;BME280;38656;54.260;20.822;2023-03-16T08:32:37;101339.19;;;22.63;32.23
52777;BME280;38656;54.260;20.822;2023-03-16T08:35:12;101343.31;;;23.27;30.86
52777;BME280;38656;54.260;20.822;2023-03-16T08:37:39;101343.75;;;24.48;29.92
52777;BME280;38656;54.260;20.822;2023-03-16T08:40:07;101348.81;;;25.08;29.06
52777;BME280;38656;54.260;20.822;2023-03-16T08:42:41;101333.44;;;29.19;24.75
52777;BME280;38656;54.260;20.822;2023-03-16T08:45:10;101337.38;;;26.38;27.58
52777;BME280;38656;54.260;20.822;2023-03-16T08:47:36;101341.06;;;25.26;28.74
52777;BME280;38656;54.260;20.822;2023-03-16T08:50:05;101334.84;;;27.82;28.20
52777;BME280;38656;54.260;20.822;2023-03-16T08:52:33;101348.94;;;27.59;26.67
52777;BME280;38656;54.260;20.822;2023-03-16T08:54:59;101358.16;;;23.97;28.36
52777;BME280;38656;54.260;20.822;2023-03-16T08:57:26;101356.22;;;22.78;31.09
52777;BME280;38656;54.260;20.822;2023-03-16T08:59:52;101358.66;;;23.71;30.39
52777;BME280;38656;54.260;20.822;2023-03-16T09:02:18;101356.81;;;22.89;30.09
52777;BME280;38656;54.260;20.822;2023-03-16T09:04:45;101360.69;;;24.20;29.57
52777;BME280;38656;54.260;20.822;2023-03-16T09:07:12;101359.78;;;26.05;28.37
52777;BME280;38656;54.260;20.822;2023-03-16T09:09:38;101351.94;;;24.77;29.00
52777;BME280;38656;54.260;20.822;2023-03-16T09:12:05;101359.28;;;26.90;26.50
52777;BME280;38656;54.260;20.822;2023-03-16T09:14:31;101356.91;;;27.47;25.88
52777;BME280;38656;54.260;20.822;2023-03-16T09:16:58;101360.50;;;28.63;23.93
52777;BME280;38656;54.260;20.822;2023-03-16T09:19:24;101359.06;;;22.62;29.25
52777;BME280;38656;54.260;20.822;2023-03-16T09:21:51;101358.66;;;24.23;29.31
52777;BME280;38656;54.260;20.822;2023-03-16T09:24:18;101361.50;;;23.69;29.57
52777;BME280;38656;54.260;20.822;2023-03-16T09:26:44;101365.75;;;24.45;29.64
52777;BME280;38656;54.260;20.822;2023-03-16T09:29:11;101366.38;;;22.91;30.15
52777;BME280;38656;54.260;20.822;2023-03-16T09:31:37;101370.25;;;24.38;28.35
52777;BME280;38656;54.260;20.822;2023-03-16T09:34:03;101372.31;;;21.78;30.29
52777;BME280;38656;54.260;20.822;2023-03-16T09:36:30;101381.19;;;21.14;31.89
52777;BME280;38656;54.260;20.822;2023-03-16T09:38:56;101382.31;;;24.06;28.79
52777;BME280;38656;54.260;20.822;2023-03-16T09:41:40;101384.78;;;20.30;32.74
52777;BME280;38656;54.260;20.822;2023-03-16T09:46:44;101383.00;;;21.94;31.05
52777;BME280;38656;54.260;20.822;2023-03-16T09:49:17;101373.72;;;23.50;29.85
52777;BME280;38656;54.260;20.822;2023-03-16T09:52:27;101378.00;;;23.60;29.37
52777;BME280;38656;54.260;20.822;2023-03-16T09:55:06;101384.13;;;24.35;28.28
52777;BME280;38656;54.260;20.822;2023-03-16T09:57:38;101378.00;;;25.89;27.55
52777;BME280;38656;54.260;20.822;2023-03-16T10:00:24;101376.16;;;26.72;26.25
52777;BME280;38656;54.260;20.822;2023-03-16T10:05:36;101380.47;;;24.64;27.59
52777;BME280;38656;54.260;20.822;2023-03-16T10:08:19;101375.09;;;26.59;26.32
52777;BME280;38656;54.260;20.822;2023-03-16T10:11:01;101391.97;;;24.51;28.75
52777;BME280;38656;54.260;20.822;2023-03-16T10:13:53;101376.59;;;26.82;26.07
52777;BME280;38656;54.260;20.822;2023-03-16T10:19:02;101387.06;;;25.05;28.08
52777;BME280;38656;54.260;20.822;2023-03-16T10:21:39;101391.16;;;24.14;28.73
52777;BME280;38656;54.260;20.822;2023-03-16T10:27:31;101390.41;;;22.55;28.27
52777;BME280;38656;54.260;20.822;2023-03-16T10:30:00;101391.63;;;22.52;29.73
52777;BME280;38656;54.260;20.822;2023-03-16T10:32:31;101398.72;;;21.74;30.39
52777;BME280;38656;54.260;20.822;2023-03-16T10:35:20;101396.13;;;24.32;28.52
52777;BME280;38656;54.260;20.822;2023-03-16T10:37:48;101398.22;;;24.15;27.56
52777;BME280;38656;54.260;20.822;2023-03-16T10:40:16;101388.13;;;24.39;28.47
52777;BME280;38656;54.260;20.822;2023-03-16T10:42:45;101391.19;;;27.01;25.98
52777;BME280;38656;54.260;20.822;2023-03-16T10:45:29;101396.56;;;23.84;27.26
52777;BME280;38656;54.260;20.822;2023-03-16T10:50:56;101387.41;;;27.22;24.72
52777;BME280;38656;54.260;20.822;2023-03-16T10:53:28;101392.28;;;24.42;28.11
52777;BME280;38656;54.260;20.822;2023-03-16T10:56:09;101398.34;;;22.17;30.57
52777;BME280;38656;54.260;20.822;2023-03-16T10:58:42;101397.34;;;25.16;26.89
52777;BME280;38656;54.260;20.822;2023-03-16T11:01:17;101397.34;;;23.33;29.54
52777;BME280;38656;54.260;20.822;2023-03-16T11:03:50;101397.31;;;25.38;28.41
52777;BME280;38656;54.260;20.822;2023-03-16T11:06:26;101409.78;;;23.79;29.30
52777;BME280;38656;54.260;20.822;2023-03-16T11:09:03;101404.50;;;24.37;28.05
52777;BME280;38656;54.260;20.822;2023-03-16T11:11:33;101406.09;;;23.80;30.32
52777;BME280;38656;54.260;20.822;2023-03-16T11:14:02;101406.56;;;25.29;28.86
52777;BME280;38656;54.260;20.822;2023-03-16T11:19:36;101409.41;;;23.53;31.45
52777;BME280;38656;54.260;20.822;2023-03-16T11:22:14;101414.66;;;23.99;30.61
52777;BME280;38656;54.260;20.822;2023-03-16T11:30:29;101422.81;;;22.85;32.24
52777;BME280;38656;54.260;20.822;2023-03-16T11:32:58;101436.13;;;22.63;31.90
52777;BME280;38656;54.260;20.822;2023-03-16T11:52:41;101424.56;;;23.01;31.38
52777;BME280;38656;54.260;20.822;2023-03-16T11:55:38;101418.63;;;25.54;28.85
52777;BME280;38656;54.260;20.822;2023-03-16T12:17:24;101437.28;;;24.71;30.20
52777;BME280;38656;54.260;20.822;2023-03-16T12:20:09;101432.13;;;25.89;27.29
52777;BME280;38656;54.260;20.822;2023-03-16T12:22:44;101443.34;;;24.95;28.74
52777;BME280;38656;54.260;20.822;2023-03-16T12:25:19;101439.06;;;25.64;26.92
52777;BME280;38656;54.260;20.822;2023-03-16T12:27:49;101438.28;;;26.66;25.04
52777;BME280;38656;54.260;20.822;2023-03-16T12:38:51;101438.50;;;26.10;26.82
52777;BME280;38656;54.260;20.822;2023-03-16T12:44:48;101452.94;;;23.79;27.97
52777;BME280;38656;54.260;20.822;2023-03-16T12:47:36;101446.91;;;25.02;27.63
52777;BME280;38656;54.260;20.822;2023-03-16T12:50:14;101456.69;;;24.60;27.39
52777;BME280;38656;54.260;20.822;2023-03-16T12:52:49;101450.25;;;23.64;27.56
52777;BME280;38656;54.260;20.822;2023-03-16T12:55:42;101463.06;;;24.37;27.71
52777;BME280;38656;54.260;20.822;2023-03-16T12:58:10;101460.72;;;24.34;27.46
52777;BME280;38656;54.260;20.822;2023-03-16T13:00:39;101460.44;;;25.87;26.93
52777;BME280;38656;54.260;20.822;2023-03-16T13:03:21;101453.94;;;27.51;25.86
52777;BME280;38656;54.260;20.822;2023-03-16T13:05:58;101452.50;;;26.20;25.57
52777;BME280;38656;54.260;20.822;2023-03-16T13:08:26;101448.81;;;28.08;25.21
52777;BME280;38656;54.260;20.822;2023-03-16T13:11:04;101451.94;;;28.05;24.68
52777;BME280;38656;54.260;20.822;2023-03-16T13:13:32;101465.06;;;21.82;28.85
52777;BME280;38656;54.260;20.822;2023-03-16T13:16:09;101476.53;;;21.59;31.00
52777;BME280;38656;54.260;20.822;2023-03-16T13:18:48;101454.94;;;25.38;27.71
52777;BME280;38656;54.260;20.822;2023-03-16T13:24:13;101464.53;;;25.19;27.54
52777;BME280;38656;54.260;20.822;2023-03-16T13:26:57;101464.22;;;22.37;29.78
52777;BME280;38656;54.260;20.822;2023-03-16T13:29:26;101465.56;;;23.34;29.68
52777;BME280;38656;54.260;20.822;2023-03-16T13:31:55;101466.38;;;23.88;28.25
52777;BME280;38656;54.260;20.822;2023-03-16T13:34:46;101478.72;;;25.00;26.58
52777;BME280;38656;54.260;20.822;2023-03-16T13:37:17;101474.66;;;22.24;30.47
52777;BME280;38656;54.260;20.822;2023-03-16T13:39:55;101477.81;;;23.22;28.48
52777;BME280;38656;54.260;20.822;2023-03-16T13:42:25;101479.94;;;22.80;29.51
52777;BME280;38656;54.260;20.822;2023-03-16T13:44:58;101481.34;;;23.90;28.89
52777;BME280;38656;54.260;20.822;2023-03-16T13:47:32;101478.16;;;23.19;29.59
52777;BME280;38656;54.260;20.822;2023-03-16T13:49:59;101478.66;;;24.05;28.80
52777;BME280;38656;54.260;20.822;2023-03-16T13:52:30;101479.69;;;23.36;29.32
52777;BME280;38656;54.260;20.822;2023-03-16T13:54:59;101479.47;;;24.72;29.11
52777;BME280;38656;54.260;20.822;2023-03-16T13:57:31;101481.34;;;22.28;30.72
52777;BME280;38656;54.260;20.822;2023-03-16T14:02:50;101490.50;;;23.13;29.23
52777;BME280;38656;54.260;20.822;2023-03-16T14:05:26;101481.25;;;22.84;30.08
52777;BME280;38656;54.260;20.822;2023-03-16T14:08:00;101496.41;;;23.08;30.18
52777;BME280;38656;54.260;20.822;2023-03-16T14:10:34;101499.16;;;23.61;29.85
52777;BME280;38656;54.260;20.822;2023-03-16T14:15:36;101502.94;;;23.37;28.71
52777;BME280;38656;54.260;20.822;2023-03-16T14:18:18;101496.81;;;24.63;27.75
52777;BME280;38656;54.260;20.822;2023-03-16T14:20:51;101496.50;;;23.23;28.96